Time;durP1;ratioP1;P1;durP2;ratioP2;P2;SDS_P1;SDS_P2;PMS_P1;PMS_P2;Temp;Humidity;BMP_temperature;BMP_pressure;BME280_temperature;BME280_humidity;BME280_pressure;Samples;Min_cycle;Max_cycle;Signal;HPM_P1;HPM_P2
2022/05/15 00:00:39;;;;;;;12.90;6.37;;;;;;;9.17;96.56;99849.37;1707133;84;21046;-70
2022/05/15 00:03:11;;;;;;;14.30;6.65;;;;;;;9.13;97.08;99854.33;1707175;84;21039;-69
2022/05/15 00:05:38;;;;;;;;;;;;;;;9.09;97.73;99856.66;1709470;83;21107;-70
2022/05/15 00:08:06;;;;;;;14.00;5.75;;;;;;;9.02;98.01;99858.20;1677220;85;20200;-70
2022/05/15 00:10:33;;;;;;;10.03;5.42;;;;;;;8.96;98.86;99853.16;1743190;82;21082;-69
2022/05/15 00:13:00;;;;;;;14.10;6.05;;;;;;;8.91;99.04;99847.21;1742938;81;21039;-70
2022/05/15 00:15:30;;;;;;;10.58;5.55;;;;;;;8.87;99.18;99856.10;1742771;82;21039;-70
2022/05/15 00:17:56;;;;;;;14.43;6.17;;;;;;;8.81;99.25;99851.05;1742674;82;21162;-70
2022/05/15 00:20:22;;;;;;;14.95;6.42;;;;;;;8.76;99.34;99842.48;1706985;84;21034;-70
2022/05/15 00:22:50;;;;;;;14.93;6.17;;;;;;;8.72;99.30;99851.36;1706993;84;21057;-70
2022/05/15 00:25:17;;;;;;;17.23;6.40;;;;;;;8.68;100.00;99841.90;1707241;84;21057;-70
2022/05/15 00:27:44;;;;;;;16.20;7.28;;;;;;;8.64;100.00;99843.75;1707082;84;21125;-69
2022/05/15 00:30:13;;;;;;;14.98;6.62;;;;;;;8.62;100.00;99839.01;1707111;84;21165;-70
2022/05/15 00:32:40;;;;;;;14.35;6.17;;;;;;;8.58;100.00;99842.20;1706835;84;21072;-70
2022/05/15 00:35:07;;;;;;;16.77;7.10;;;;;;;8.57;100.00;99848.34;1707245;84;21579;-70
2022/05/15 00:37:34;;;;;;;12.78;6.42;;;;;;;8.54;100.00;99845.84;1707177;84;21530;-70
2022/05/15 00:40:01;;;;;;;13.65;6.85;;;;;;;8.52;100.00;99851.59;1707262;84;21526;-69
2022/05/15 00:42:27;;;;;;;14.47;6.20;;;;;;;8.46;100.00;99854.40;1706924;84;22161;-70
2022/05/15 00:44:54;;;;;;;15.75;6.92;;;;;;;8.43;100.00;99857.14;1707154;84;21523;-69
2022/05/15 00:47:22;;;;;;;18.52;6.95;;;;;;;8.39;100.00;99862.04;1707083;84;21038;-69
2022/05/15 00:49:49;;;;;;;15.03;6.35;;;;;;;8.35;99.92;99861.73;1707223;84;20998;-71
2022/05/15 00:52:19;;;;;;;12.82;6.03;;;;;;;8.30;99.93;99847.91;1706935;84;21113;-70
2022/05/15 00:54:50;;;;;;;13.22;6.62;;;;;;;8.27;100.00;99851.95;1707248;84;21136;-69
2022/05/15 00:57:37;;;;;;;14.45;6.28;;;;;;;8.24;100.00;99852.06;1707140;84;21121;-70
2022/05/15 01:00:12;;;;;;;14.15;7.15;;;;;;;8.20;100.00;99849.51;1707059;84;21073;-69
2022/05/15 01:02:52;;;;;;;21.25;7.47;;;;;;;8.18;100.00;99838.20;1706817;83;21088;-69
2022/05/15 01:05:19;;;;;;;18.37;7.70;;;;;;;8.16;100.00;99842.64;1707381;84;21533;-70
2022/05/15 01:07:46;;;;;;;17.42;7.20;;;;;;;8.16;100.00;99847.03;1707188;84;21518;-69
2022/05/15 01:10:14;;;;;;;22.95;7.97;;;;;;;8.14;100.00;99854.09;1707215;84;21030;-70
2022/05/15 01:12:41;;;;;;;19.15;8.30;;;;;;;8.14;100.00;99849.73;1707329;84;21517;-70
2022/05/15 01:15:14;;;;;;;17.15;8.08;;;;;;;8.15;100.00;99846.64;1706993;84;21073;-69
2022/05/15 01:17:42;;;;;;;18.55;7.83;;;;;;;8.13;100.00;99844.06;1686342;84;21065;-69
2022/05/15 01:20:16;;;;;;;18.02;7.28;;;;;;;8.12;100.00;99846.72;1707032;84;21162;-70
2022/05/15 01:22:42;;;;;;;20.45;7.97;;;;;;;8.09;100.00;99847.67;1706860;83;21030;-70
2022/05/15 01:25:24;;;;;;;14.28;6.92;;;;;;;8.06;100.00;99843.84;1707205;84;21072;-70
2022/05/15 01:28:06;;;;;;;16.40;7.47;;;;;;;8.01;100.00;99836.59;1707077;84;21081;-70
2022/05/15 01:30:33;;;;;;;;;;;;;;;7.97;100.00;99841.05;1709861;84;21022;-72
2022/05/15 01:33:00;;;;;;;17.62;7.12;;;;;;;7.94;100.00;99839.00;1677377;85;21116;-71
2022/05/15 01:35:28;;;;;;;17.02;7.42;;;;;;;7.90;100.00;99838.22;1742966;82;21047;-69
2022/05/15 01:37:54;;;;;;;19.00;8.45;;;;;;;7.86;100.00;99835.28;1707238;84;21030;-70
2022/05/15 01:40:21;;;;;;;19.50;8.05;;;;;;;7.83;100.00;99833.22;1707141;84;21030;-69
2022/05/15 01:42:49;;;;;;;16.48;8.08;;;;;;;7.81;100.00;99833.25;1707264;84;21089;-69
2022/05/15 01:45:16;;;;;;;22.05;8.08;;;;;;;7.76;100.00;99829.46;1707245;84;21272;-69
2022/05/15 01:47:42;;;;;;;15.93;7.60;;;;;;;7.73;100.00;99826.06;1707205;84;21031;-70
2022/05/15 01:50:11;;;;;;;19.62;8.33;;;;;;;7.70;100.00;99831.41;1707051;84;21081;-70
2022/05/15 01:52:37;;;;;;;21.40;8.90;;;;;;;7.68;100.00;99831.44;1706600;84;21308;-71
2022/05/15 01:55:05;;;;;;;17.45;7.50;;;;;;;7.64;100.00;99821.98;1707159;84;21093;-70
2022/05/15 01:57:32;;;;;;;14.68;7.67;;;;;;;7.63;100.00;99829.88;1706812;84;21237;-70
2022/05/15 01:59:59;;;;;;;18.65;7.65;;;;;;;7.60;100.00;99820.34;1721302;82;21640;-69
2022/05/15 02:02:26;;;;;;;12.80;7.28;;;;;;;7.59;100.00;99821.23;1742627;82;21063;-71
2022/05/15 02:04:53;;;;;;;20.00;7.92;;;;;;;7.57;100.00;99817.83;1706894;84;21117;-70
2022/05/15 02:07:20;;;;;;;15.28;6.72;;;;;;;7.55;100.00;99825.72;1706708;84;21014;-68
2022/05/15 02:09:47;;;;;;;14.30;6.20;;;;;;;7.46;100.00;99810.73;1706988;84;21150;-69
2022/05/15 02:12:15;;;;;;;13.65;6.25;;;;;;;7.52;100.00;99824.52;1706701;84;21530;-69
2022/05/15 02:14:41;;;;;;;16.97;7.60;;;;;;;7.51;100.00;99816.69;1680574;84;21051;-70
2022/05/15 02:17:08;;;;;;;16.90;8.23;;;;;;;7.52;100.00;99815.77;1711358;83;21067;-70
2022/05/15 02:19:35;;;;;;;14.45;7.70;;;;;;;7.50;100.00;99811.02;1711875;83;21008;-69
2022/05/15 02:22:02;;;;;;;17.30;7.17;;;;;;;7.49;100.00;99811.94;1711445;83;21352;-70
2022/05/15 02:24:29;;;;;;;17.73;8.15;;;;;;;7.46;100.00;99808.11;1711571;83;21046;-69
2022/05/15 02:26:56;;;;;;;18.25;8.70;;;;;;;7.44;100.00;99806.84;1711494;82;21063;-70
2022/05/15 02:29:22;;;;;;;17.45;7.47;;;;;;;7.42;100.00;99807.78;1711516;83;21056;-71
2022/05/15 02:31:49;;;;;;;17.27;8.15;;;;;;;7.40;100.00;99809.59;1711431;83;21082;-70
2022/05/15 02:34:16;;;;;;;21.80;9.00;;;;;;;7.39;100.00;99809.20;1711436;83;21297;-71
2022/05/15 02:36:43;;;;;;;21.50;8.35;;;;;;;7.37;100.00;99807.07;1711140;83;21042;-69
2022/05/15 02:39:10;;;;;;;16.52;8.63;;;;;;;7.35;100.00;99801.86;1711314;83;21099;-69
2022/05/15 02:41:37;;;;;;;22.70;8.95;;;;;;;7.37;100.00;99805.76;1711239;83;21071;-69
2022/05/15 02:44:04;;;;;;;22.50;8.78;;;;;;;7.37;100.00;99808.38;1711374;83;21172;-69
2022/05/15 02:46:31;;;;;;;12.80;6.33;;;;;;;7.40;100.00;99816.14;1711458;83;21934;-69
2022/05/15 02:51:43;;;;;;;17.45;8.50;;;;;;;7.45;100.00;99826.03;1711367;83;21091;-71
2022/05/15 02:54:09;;;;;;;19.02;7.25;;;;;;;7.49;100.00;99822.42;1711695;83;21054;-71
2022/05/15 02:56:36;;;;;;;15.93;6.45;;;;;;;7.53;100.00;99822.75;1711467;82;21122;-70
2022/05/15 02:59:04;;;;;;;12.33;6.00;;;;;;;7.56;100.00;99825.27;1711516;83;21265;-70
2022/05/15 03:01:31;;;;;;;13.83;6.95;;;;;;;7.62;100.00;99822.47;1711734;83;21024;-71
2022/05/15 03:03:57;;;;;;;12.70;6.40;;;;;;;7.67;100.00;99829.73;1711526;83;21637;-70
2022/05/15 03:06:24;;;;;;;12.70;6.85;;;;;;;7.71;100.00;99827.44;1711532;83;21240;-71
2022/05/15 03:08:51;;;;;;;15.13;6.85;;;;;;;7.80;100.00;99829.36;1711352;82;21115;-70
2022/05/15 03:11:19;;;;;;;18.05;6.62;;;;;;;7.87;100.00;99835.70;1711387;83;21214;-70
2022/05/15 03:13:46;;;;;;;13.28;6.05;;;;;;;7.92;100.00;99833.79;1726484;82;21040;-68
2022/05/15 03:16:13;;;;;;;26.55;7.87;;;;;;;7.98;100.00;99834.03;1742903;82;21054;-69
2022/05/15 03:18:43;;;;;;;21.73;7.03;;;;;;;8.05;100.00;99836.02;1742451;82;21039;-70
2022/05/15 03:21:12;;;;;;;20.90;6.45;;;;;;;8.12;100.00;99838.42;1721293;82;21634;-69
2022/05/15 03:23:39;;;;;;;17.52;6.87;;;;;;;8.19;100.00;99832.07;1712906;83;21203;-71
2022/05/15 03:26:06;;;;;;;13.83;6.62;;;;;;;8.28;100.00;99835.28;1714481;83;21046;-70
2022/05/15 03:28:34;;;;;;;14.63;6.42;;;;;;;8.34;100.00;99836.41;1714513;83;21549;-70
2022/05/15 03:31:00;;;;;;;13.98;6.12;;;;;;;8.42;100.00;99835.75;1714559;83;21022;-70
2022/05/15 03:36:26;;;;;;;14.05;6.53;;;;;;;8.61;100.00;99836.84;1796705;79;28634;-71
2022/05/15 03:38:53;;;;;;;17.92;6.83;;;;;;;8.65;100.00;99840.23;1756710;81;21502;-70
2022/05/15 03:41:20;;;;;;;15.48;7.17;;;;;;;8.74;100.00;99839.05;1756489;81;21146;-70
2022/05/15 03:43:47;;;;;;;15.08;6.95;;;;;;;8.81;100.00;99845.80;1756341;81;21459;-70
2022/05/15 03:46:15;;;;;;;11.20;5.92;;;;;;;8.92;100.00;99839.72;1756784;81;21526;-71
2022/05/15 03:48:42;;;;;;;16.02;7.05;;;;;;;8.98;100.00;99846.08;1706381;83;21108;-71
2022/05/15 03:51:08;;;;;;;16.60;7.47;;;;;;;9.07;100.00;99854.56;1722774;83;21107;-70
2022/05/15 03:53:35;;;;;;;14.18;7.75;;;;;;;9.11;100.00;99847.84;1722897;83;21519;-70
2022/05/15 03:56:03;;;;;;;14.20;7.33;;;;;;;9.19;100.00;99843.61;1719524;83;21509;-70
2022/05/15 03:58:35;;;;;;;17.85;8.33;;;;;;;9.24;100.00;99842.98;1696623;84;21026;-70
2022/05/15 04:01:02;;;;;;;;;;;;;;;9.31;100.00;99837.91;1717862;83;21052;-69
2022/05/15 04:03:29;;;;;;;17.10;8.83;;;;;;;9.36;100.00;99835.98;1685925;85;20517;-69
2022/05/15 04:05:55;;;;;;;18.82;10.00;;;;;;;9.39;100.00;99825.35;1707254;84;22147;-71
2022/05/15 04:08:22;;;;;;;23.05;9.65;;;;;;;9.44;100.00;99835.69;1707267;84;21076;-69
2022/05/15 04:10:49;;;;;;;16.73;8.50;;;;;;;9.48;100.00;99834.67;1707357;84;21153;-71
2022/05/15 04:13:18;;;;;;;15.05;8.50;;;;;;;9.53;100.00;99836.66;1699065;84;21037;-71
2022/05/15 04:15:45;;;;;;;23.00;8.53;;;;;;;9.60;100.00;99838.61;1651475;85;21061;-69
2022/05/15 04:18:12;;;;;;;13.60;8.20;;;;;;;9.64;100.00;99840.22;1678986;85;22671;-70
2022/05/15 04:20:39;;;;;;;15.13;7.37;;;;;;;9.68;100.00;99844.42;1678758;85;21072;-70
2022/05/15 04:23:07;;;;;;;14.10;7.35;;;;;;;9.74;100.00;99846.83;1678877;85;21168;-70
2022/05/15 04:25:34;;;;;;;14.23;7.22;;;;;;;9.77;100.00;99844.07;1678980;85;21205;-70
2022/05/15 04:28:00;;;;;;;15.05;6.33;;;;;;;9.82;100.00;99847.41;1679209;85;21104;-71
2022/05/15 04:30:27;;;;;;;10.95;5.65;;;;;;;9.88;100.00;99848.46;1679142;85;21258;-71
2022/05/15 04:32:54;;;;;;;14.03;5.72;;;;;;;9.94;100.00;99850.02;1679203;85;21137;-70
2022/05/15 04:35:22;;;;;;;9.53;5.53;;;;;;;10.00;100.00;99848.91;1673510;84;21069;-70
2022/05/15 04:37:51;;;;;;;11.00;5.60;;;;;;;10.05;100.00;99853.52;1666678;86;21141;-70
2022/05/15 04:40:18;;;;;;;11.45;6.08;;;;;;;10.11;100.00;99848.03;1666535;86;21124;-70
2022/05/15 04:42:45;;;;;;;12.55;6.15;;;;;;;10.18;100.00;99854.76;1666587;86;21091;-70
2022/05/15 04:45:12;;;;;;;16.15;6.70;;;;;;;10.26;100.00;99859.70;1666550;86;21609;-70
2022/05/15 04:47:38;;;;;;;17.42;6.28;;;;;;;10.34;100.00;99858.13;1666070;86;21676;-70
2022/05/15 04:50:07;;;;;;;13.98;6.87;;;;;;;10.43;100.00;99855.13;1665979;86;22098;-70
2022/05/15 04:52:35;;;;;;;14.45;5.87;;;;;;;10.55;100.00;99858.56;1666208;86;21116;-70
2022/05/15 04:55:01;;;;;;;14.65;6.37;;;;;;;10.67;100.00;99852.81;1666147;86;21715;-70
2022/05/15 04:57:28;;;;;;;16.87;6.15;;;;;;;10.83;99.04;99854.77;1665925;86;21641;-70
2022/05/15 04:59:55;;;;;;;16.27;6.10;;;;;;;10.97;97.45;99862.94;1666348;86;21093;-71
2022/05/15 05:02:23;;;;;;;12.07;5.80;;;;;;;11.10;96.58;99861.50;1666272;86;21140;-70
2022/05/15 05:04:50;;;;;;;16.90;7.08;;;;;;;11.23;95.21;99863.15;1666156;86;21140;-70
2022/05/15 05:07:17;;;;;;;11.90;6.42;;;;;;;11.34;93.39;99862.22;1666335;86;21914;-69
2022/05/15 05:09:45;;;;;;;16.73;7.10;;;;;;;11.46;92.14;99866.08;1666127;86;21082;-70
2022/05/15 05:12:11;;;;;;;12.43;6.28;;;;;;;11.58;91.85;99868.62;1666224;86;21109;-69
2022/05/15 05:14:38;;;;;;;14.15;6.33;;;;;;;11.76;90.75;99865.14;1689936;84;21168;-69
2022/05/15 05:17:05;;;;;;;16.32;6.25;;;;;;;11.93;88.94;99868.34;1694054;84;21153;-69
2022/05/15 05:19:31;;;;;;;17.42;6.70;;;;;;;12.09;88.43;99872.91;1694158;84;21325;-69
2022/05/15 05:21:58;;;;;;;14.13;5.80;;;;;;;12.23;86.25;99859.05;1694023;84;21100;-71
2022/05/15 05:24:25;;;;;;;14.60;6.22;;;;;;;12.35;85.72;99869.01;1694244;84;21542;-70
2022/05/15 05:26:51;;;;;;;15.40;5.92;;;;;;;12.46;84.29;99869.34;1694114;84;21125;-70
2022/05/15 05:29:18;;;;;;;17.73;6.37;;;;;;;12.57;84.17;99869.67;1694336;84;21108;-70
2022/05/15 05:31:45;;;;;;;13.68;5.60;;;;;;;12.67;83.13;99865.26;1694409;84;22187;-70
2022/05/15 05:34:12;;;;;;;15.43;5.83;;;;;;;12.72;82.57;99865.44;1694156;84;21057;-70
2022/05/15 05:36:39;;;;;;;13.05;5.97;;;;;;;12.82;82.68;99856.57;1693993;83;21608;-68
2022/05/15 05:39:06;;;;;;;14.38;5.72;;;;;;;12.89;81.93;99853.16;1694093;84;21046;-70
2022/05/15 05:41:32;;;;;;;11.73;5.67;;;;;;;12.95;80.82;99852.82;1694172;84;21045;-69
2022/05/15 05:44:00;;;;;;;10.88;4.50;;;;;;;12.98;80.62;99849.56;1694174;84;21241;-70
2022/05/15 05:46:29;;;;;;;13.45;4.78;;;;;;;13.05;79.95;99855.87;1694343;84;21673;-69
2022/05/15 05:48:57;;;;;;;11.43;4.72;;;;;;;13.12;79.83;99850.17;1694287;84;21077;-72
2022/05/15 05:51:25;;;;;;;13.83;4.80;;;;;;;13.20;79.20;99853.28;1694270;84;21140;-70
2022/05/15 05:53:51;;;;;;;15.00;5.03;;;;;;;13.26;78.55;99855.22;1694197;84;21068;-70
2022/05/15 05:56:18;;;;;;;9.20;4.20;;;;;;;13.27;77.97;99856.44;1694548;84;21112;-70
2022/05/15 05:58:45;;;;;;;10.05;3.77;;;;;;;13.27;77.99;99850.30;1694123;84;21078;-70
2022/05/15 06:01:13;;;;;;;14.35;4.42;;;;;;;13.32;77.68;99860.19;1694594;84;21069;-71
2022/05/15 06:06:25;;;;;;;10.10;3.83;;;;;;;13.51;77.11;99864.91;1694321;84;21124;-71
2022/05/15 06:08:52;;;;;;;7.40;4.20;;;;;;;13.61;76.29;99865.27;1694175;84;21155;-70
2022/05/15 06:11:19;;;;;;;10.80;4.22;;;;;;;13.52;76.11;99866.61;1694074;84;21604;-70
2022/05/15 06:13:46;;;;;;;9.88;4.03;;;;;;;13.44;76.33;99872.80;1680252;84;21143;-71
2022/05/15 06:16:13;;;;;;;11.28;3.83;;;;;;;13.40;76.80;99872.56;1665985;85;21610;-69
2022/05/15 06:18:40;;;;;;;10.20;3.83;;;;;;;13.41;77.13;99876.45;1666100;86;21161;-70
2022/05/15 06:21:07;;;;;;;11.25;4.08;;;;;;;13.42;76.85;99877.30;1666129;86;22232;-71
2022/05/15 06:23:34;;;;;;;10.28;4.50;;;;;;;13.35;77.00;99872.80;1665855;86;21092;-70
2022/05/15 06:26:00;;;;;;;13.78;4.20;;;;;;;13.21;77.58;99877.45;1666119;86;21030;-72
2022/05/15 06:28:29;;;;;;;11.40;3.98;;;;;;;13.10;78.38;99877.16;1666427;85;21089;-72
2022/05/15 06:30:56;;;;;;;10.00;4.17;;;;;;;13.02;78.84;99883.28;1666302;86;21049;-71
2022/05/15 06:33:23;;;;;;;8.98;3.33;;;;;;;12.95;79.13;99884.09;1666424;86;21189;-70
2022/05/15 06:35:49;;;;;;;9.13;3.83;;;;;;;12.90;81.42;99883.92;1666102;84;21187;-71
2022/05/15 06:38:16;;;;;;;9.10;3.90;;;;;;;12.83;82.02;99890.45;1666058;85;21177;-70
2022/05/15 06:40:42;;;;;;;10.23;4.92;;;;;;;12.77;83.79;99889.83;1665989;86;21073;-70
2022/05/15 06:43:09;;;;;;;14.40;4.58;;;;;;;12.75;86.49;99886.41;1666363;86;21101;-70
2022/05/15 06:45:37;;;;;;;11.35;4.50;;;;;;;12.71;86.67;99884.84;1666079;85;22048;-71
2022/05/15 06:48:04;;;;;;;13.03;4.30;;;;;;;12.69;87.99;99880.09;1666237;86;21775;-71
2022/05/15 06:50:31;;;;;;;9.83;4.00;;;;;;;12.59;90.51;99884.14;1666078;85;21165;-71
2022/05/15 06:52:58;;;;;;;12.98;4.78;;;;;;;12.49;91.51;99881.54;1665924;86;21074;-69
2022/05/15 06:55:25;;;;;;;10.03;4.65;;;;;;;12.39;91.98;99881.98;1666028;86;21104;-70
2022/05/15 06:57:51;;;;;;;9.00;4.50;;;;;;;12.32;94.26;99883.22;1666099;86;21181;-71
2022/05/15 07:00:22;;;;;;;12.37;4.70;;;;;;;12.24;94.58;99876.15;1665835;86;21089;-71
2022/05/15 07:02:49;;;;;;;17.42;5.15;;;;;;;12.20;95.70;99875.89;1666335;85;21424;-71
2022/05/15 07:05:24;;;;;;;12.80;4.70;;;;;;;12.20;98.03;99867.98;1665956;86;21614;-71
2022/05/15 07:07:52;;;;;;;11.30;4.90;;;;;;;12.22;98.65;99873.20;1665970;86;21097;-70
2022/05/15 07:10:20;;;;;;;12.43;4.70;;;;;;;12.25;99.76;99868.60;1666003;86;21818;-71
2022/05/15 07:12:46;;;;;;;11.05;4.45;;;;;;;12.33;100.00;99861.19;1668211;84;21218;-71
2022/05/15 07:15:14;;;;;;;8.98;4.15;;;;;;;12.47;100.00;99856.55;1694145;84;21097;-70
2022/05/15 07:17:42;;;;;;;11.15;4.62;;;;;;;12.69;100.00;99845.75;1693818;84;21081;-71
2022/05/15 07:20:09;;;;;;;9.83;4.50;;;;;;;13.00;100.00;99846.38;1694374;84;21068;-70
2022/05/15 07:22:36;;;;;;;9.48;4.20;;;;;;;13.53;99.11;99841.87;1694159;84;21225;-71
2022/05/15 07:25:03;;;;;;;11.20;4.05;;;;;;;14.18;98.28;99841.82;1694083;84;21529;-70
2022/05/15 07:27:29;;;;;;;8.88;4.08;;;;;;;14.93;96.10;99841.95;1694199;84;21081;-70
2022/05/15 07:29:56;;;;;;;8.50;3.95;;;;;;;15.49;86.82;99836.78;1694629;84;21577;-70
2022/05/15 07:32:22;;;;;;;10.43;3.60;;;;;;;16.04;85.31;99835.98;1694178;84;21653;-70
2022/05/15 07:34:49;;;;;;;11.03;3.62;;;;;;;16.52;83.89;99830.23;1694576;84;21840;-71
2022/05/15 07:37:17;;;;;;;9.68;3.25;;;;;;;16.97;74.89;99831.60;1710905;83;21071;-71
2022/05/15 07:39:43;;;;;;;10.53;3.52;;;;;;;17.09;74.34;99830.39;1719729;83;21017;-69
2022/05/15 07:42:10;;;;;;;11.05;3.80;;;;;;;17.24;74.12;99827.17;1690811;84;21056;-69
2022/05/15 07:44:37;;;;;;;9.70;3.10;;;;;;;17.57;69.21;99827.92;1690946;84;21072;-70
2022/05/15 07:47:05;;;;;;;11.75;2.92;;;;;;;17.99;66.75;99825.37;1691000;84;21285;-70
2022/05/15 07:49:32;;;;;;;6.22;2.65;;;;;;;18.37;63.78;99835.02;1690828;84;21568;-70
2022/05/15 07:51:58;;;;;;;7.42;2.58;;;;;;;18.57;61.68;99838.88;1690957;84;21151;-70
2022/05/15 07:54:25;;;;;;;8.98;3.05;;;;;;;18.95;60.42;99835.14;1690972;84;21052;-69
2022/05/15 07:56:52;;;;;;;10.13;2.70;;;;;;;19.45;59.25;99830.36;1690824;84;21071;-69
2022/05/15 07:59:18;;;;;;;6.90;2.55;;;;;;;19.72;58.07;99839.88;1691196;84;21805;-70
2022/05/15 08:01:45;;;;;;;7.53;2.60;;;;;;;19.96;57.05;99834.37;1690900;84;21075;-70
2022/05/15 08:04:13;;;;;;;7.45;2.45;;;;;;;20.25;55.12;99833.83;1690991;84;21091;-70
2022/05/15 08:09:25;;;;;;;7.00;2.22;;;;;;;21.14;49.57;99832.59;1690780;84;21052;-70
2022/05/15 08:11:53;;;;;;;7.15;2.25;;;;;;;21.35;45.05;99825.03;1690897;84;22465;-70
2022/05/15 08:14:20;;;;;;;6.40;2.10;;;;;;;21.26;44.81;99824.48;1666900;84;21635;-71
2022/05/15 08:16:47;;;;;;;6.00;2.10;;;;;;;21.10;45.12;99819.60;1673049;85;21140;-70
2022/05/15 08:24:43;;;;;;;9.13;2.35;;;;;;;21.52;43.73;99806.16;1686518;85;21784;-70
2022/05/15 08:27:12;;;;;;;6.50;2.30;;;;;;;21.48;43.07;99809.59;1691116;84;21107;-71
2022/05/15 08:29:38;;;;;;;6.53;2.80;;;;;;;21.36;42.36;99798.59;1690865;84;21170;-70
2022/05/15 08:32:06;;;;;;;8.18;2.92;;;;;;;21.47;42.49;99797.19;1690941;84;21039;-71
2022/05/15 08:34:34;;;;;;;13.88;3.52;;;;;;;21.76;41.05;99789.73;1691346;84;21079;-69
2022/05/15 08:37:03;;;;;;;9.73;3.40;;;;;;;21.97;39.67;99786.48;1690906;84;21221;-70
2022/05/15 08:39:30;;;;;;;9.25;3.00;;;;;;;21.63;40.10;99789.99;1690734;84;21083;-70
2022/05/15 08:42:08;;;;;;;8.08;3.00;;;;;;;21.39;40.96;99787.59;1690989;84;21106;-70
2022/05/15 08:44:37;;;;;;;13.65;3.40;;;;;;;21.54;41.45;99784.95;1668055;84;21086;-70
2022/05/15 08:47:42;;;;;;;10.05;3.30;;;;;;;21.77;40.69;99786.92;1658147;86;21081;-71
2022/05/15 08:50:13;;;;;;;8.28;3.30;;;;;;;21.82;38.95;99777.12;1668943;86;21200;-70
2022/05/15 08:53:00;;;;;;;9.18;3.35;;;;;;;21.68;39.27;99776.19;1668785;86;21093;-70
2022/05/15 08:55:42;;;;;;;7.97;2.83;;;;;;;21.62;38.68;99786.09;1668725;85;21153;-71
2022/05/15 08:58:19;;;;;;;12.28;3.08;;;;;;;21.34;38.31;99791.17;1668717;86;21062;-70
2022/05/15 09:00:51;;;;;;;12.13;3.20;;;;;;;20.80;38.14;99785.58;1668640;85;21026;-71
2022/05/15 09:03:22;;;;;;;11.57;3.25;;;;;;;20.29;39.29;99789.34;1668691;86;21364;-71
2022/05/15 09:06:24;;;;;;;10.23;3.52;;;;;;;19.90;40.56;99796.98;1669016;86;21113;-71
2022/05/15 09:09:12;;;;;;;8.93;3.30;;;;;;;19.64;41.56;99802.19;1668470;86;21124;-70
2022/05/15 09:11:55;;;;;;;9.18;3.65;;;;;;;19.25;42.69;99800.37;1668610;86;21092;-71
2022/05/15 09:15:00;;;;;;;8.98;3.30;;;;;;;18.85;44.62;99799.47;1689497;84;21116;-70
2022/05/15 09:18:02;;;;;;;9.30;3.67;;;;;;;18.56;45.18;99805.16;1696557;84;21127;-71
2022/05/15 09:20:49;;;;;;;7.95;3.37;;;;;;;18.27;45.64;99805.14;1696704;84;21680;-71
2022/05/15 09:23:36;;;;;;;13.90;3.42;;;;;;;18.20;45.00;99806.95;1686645;84;22093;-70
2022/05/15 09:26:27;;;;;;;12.30;3.17;;;;;;;18.20;44.83;99804.30;1695958;84;21138;-70
2022/05/15 09:29:01;;;;;;;9.78;2.75;;;;;;;18.33;45.40;99804.70;1696652;84;21097;-71
2022/05/15 09:31:38;;;;;;;8.20;2.72;;;;;;;18.60;44.81;99795.96;1696888;84;21546;-70
2022/05/15 09:34:08;;;;;;;6.35;2.90;;;;;;;18.90;44.28;99791.95;1696900;84;21114;-70
2022/05/15 09:36:42;;;;;;;9.78;2.90;;;;;;;19.29;42.86;99790.66;1668966;83;21030;-71
2022/05/15 09:39:38;;;;;;;8.63;2.87;;;;;;;19.66;42.94;99786.89;1686338;85;21089;-71
2022/05/15 09:45:19;;;;;;;10.43;2.83;;;;;;;20.33;41.43;99785.41;1686430;85;21114;-71
2022/05/15 09:47:55;;;;;;;9.55;2.60;;;;;;;20.92;40.09;99776.52;1686383;85;21053;-72
2022/05/15 09:50:51;;;;;;;8.15;1.90;;;;;;;21.36;38.99;99780.68;1686537;85;21054;-72
2022/05/15 09:53:36;;;;;;;6.55;1.77;;;;;;;21.74;35.93;99766.23;1686370;85;21077;-70
2022/05/15 09:56:23;;;;;;;7.37;2.27;;;;;;;21.78;35.02;99759.63;1686319;85;21066;-69
2022/05/15 09:59:13;;;;;;;10.45;2.12;;;;;;;21.67;35.33;99766.43;1686214;85;21160;-70
2022/05/15 10:01:58;;;;;;;5.85;2.10;;;;;;;21.57;35.57;99757.87;1686377;85;21058;-71
2022/05/15 10:04:32;;;;;;;5.97;2.35;;;;;;;21.61;35.86;99769.67;1686797;85;21069;-72
2022/05/15 10:07:02;;;;;;;6.83;2.37;;;;;;;21.55;35.95;99773.73;1685782;85;21582;-71
2022/05/15 10:09:34;;;;;;;8.13;2.30;;;;;;;21.14;37.09;99772.34;1686575;85;21609;-70
2022/05/15 10:12:30;;;;;;;5.45;1.90;;;;;;;20.93;37.38;99778.20;1686510;85;21169;-71
2022/05/15 10:15:01;;;;;;;7.67;2.10;;;;;;;20.89;37.88;99772.75;1686641;85;21112;-70
2022/05/15 10:17:28;;;;;;;6.05;2.00;;;;;;;20.87;38.43;99771.56;1686621;85;21585;-70
2022/05/15 10:20:23;;;;;;;6.83;1.50;;;;;;;20.95;38.14;99770.39;1688069;84;21070;-69
2022/05/15 10:23:07;;;;;;;8.45;2.47;;;;;;;21.03;40.54;99776.45;1685960;85;21097;-70
2022/05/15 10:25:54;;;;;;;9.28;2.30;;;;;;;20.72;38.98;99779.05;1686871;85;21941;-69
2022/05/15 10:28:45;;;;;;;7.12;1.95;;;;;;;20.82;39.06;99772.91;1686350;85;21078;-69
2022/05/15 10:31:19;;;;;;;5.73;1.97;;;;;;;21.41;38.24;99772.27;1686932;85;21074;-71
2022/05/15 10:34:00;;;;;;;3.90;1.57;;;;;;;21.77;36.34;99768.66;1686519;85;21760;-71
2022/05/15 10:36:41;;;;;;;5.37;1.82;;;;;;;21.86;35.01;99774.53;1665096;83;21093;-71
2022/05/15 10:39:31;;;;;;;9.00;1.95;;;;;;;21.72;34.02;99781.13;1686346;85;21242;-70
2022/05/15 10:42:13;;;;;;;8.88;2.17;;;;;;;21.43;34.64;99778.34;1686170;85;21044;-71
2022/05/15 10:44:57;;;;;;;9.85;2.17;;;;;;;21.24;36.12;99779.09;1686283;85;21211;-71
2022/05/15 10:47:30;;;;;;;6.75;2.00;;;;;;;21.24;37.06;99778.24;1639638;85;21074;-70
2022/05/15 10:50:18;;;;;;;6.40;2.22;;;;;;;21.50;36.26;99780.84;1686546;85;21073;-71
2022/05/15 10:59:55;;;;;;;11.63;2.77;;;;;;;22.30;34.75;99774.20;1686197;85;21069;-70
2022/05/15 11:02:32;;;;;;;7.97;2.42;;;;;;;22.43;34.46;99757.80;1686943;85;21082;-70
2022/05/15 11:05:36;;;;;;;7.53;2.37;;;;;;;22.56;33.41;99763.73;1684735;85;21074;-72
2022/05/15 11:08:40;;;;;;;9.93;2.42;;;;;;;22.23;34.34;99767.20;1686425;85;21144;-71
2022/05/15 11:11:37;;;;;;;6.78;2.00;;;;;;;22.12;34.55;99776.69;1686311;85;21057;-70
2022/05/15 11:14:30;;;;;;;5.85;2.37;;;;;;;22.12;34.40;99760.60;1643046;85;21076;-72
2022/05/15 11:17:18;;;;;;;6.78;2.20;;;;;;;22.02;34.41;99761.94;1686437;85;21065;-70
2022/05/15 11:19:46;;;;;;;7.90;2.40;;;;;;;21.82;33.22;99762.39;1686398;85;21074;-70
2022/05/15 11:22:31;;;;;;;10.72;3.17;;;;;;;21.52;33.83;99769.50;1686754;85;22254;-70
2022/05/15 11:25:13;;;;;;;11.83;3.33;;;;;;;21.33;34.25;99769.41;1686311;84;21625;-71
2022/05/15 11:28:01;;;;;;;6.85;2.72;;;;;;;21.18;34.67;99760.86;1686678;85;21078;-72
2022/05/15 11:30:36;;;;;;;9.78;2.50;;;;;;;20.80;34.54;99777.55;1683503;85;21073;-71
2022/05/15 11:33:10;;;;;;;8.20;2.37;;;;;;;20.47;35.68;99774.05;1665164;85;21088;-72
2022/05/15 11:35:40;;;;;;;7.67;2.17;;;;;;;20.39;36.22;99773.86;1686419;85;21132;-70
2022/05/15 11:38:29;;;;;;;8.83;2.52;;;;;;;20.31;36.19;99763.32;1692576;83;25791;-71
2022/05/15 11:40:56;;;;;;;7.65;2.10;;;;;;;20.51;36.44;99775.00;1687250;84;21629;-70
2022/05/15 11:43:33;;;;;;;8.03;2.27;;;;;;;20.97;36.31;99763.58;1696784;84;21089;-71
2022/05/15 11:46:11;;;;;;;10.28;2.30;;;;;;;21.47;35.49;99766.38;1695509;84;21061;-70
2022/05/15 11:48:51;;;;;;;16.42;2.83;;;;;;;21.81;34.74;99763.39;1696719;84;21172;-70
2022/05/15 11:51:30;;;;;;;7.25;2.30;;;;;;;21.91;34.08;99757.54;1696581;84;21121;-70
2022/05/15 11:54:08;;;;;;;4.95;2.12;;;;;;;21.86;33.50;99753.09;1696598;84;21096;-70
2022/05/15 11:56:48;;;;;;;9.30;2.30;;;;;;;21.86;32.55;99764.31;1696679;84;21084;-70
2022/05/15 11:59:31;;;;;;;14.10;2.77;;;;;;;21.70;32.45;99738.88;1697288;84;21101;-71
2022/05/15 12:02:05;;;;;;;10.98;3.33;;;;;;;21.34;32.28;99764.39;1697017;84;21897;-70
2022/05/15 12:04:41;;;;;;;8.65;2.87;;;;;;;21.04;33.08;99755.38;1645405;84;22251;-71
2022/05/15 12:07:32;;;;;;;11.30;2.92;;;;;;;20.81;33.41;99771.23;1696887;84;21605;-71
2022/05/15 12:09:58;;;;;;;8.05;2.60;;;;;;;20.65;33.65;99768.52;1696753;84;21218;-71
2022/05/15 12:12:31;;;;;;;6.20;2.20;;;;;;;20.64;33.65;99754.80;1696928;84;21050;-72
2022/05/15 12:15:09;;;;;;;10.32;2.58;;;;;;;20.68;32.96;99762.92;1696012;84;21065;-70